createdAt,value
2023-05-05T00:00:14.900Z,73.8326
2023-05-05T00:01:15.707Z,73.6873
2023-05-05T00:02:16.112Z,73.4976
2023-05-05T00:03:18.130Z,74.1850
2023-05-05T00:04:22.856Z,73.1498
2023-05-05T00:05:25.181Z,73.6151
2023-05-05T00:06:25.749Z,72.7968
2023-05-05T00:07:27.697Z,71.4613
2023-05-05T00:08:29.607Z,73.2161
2023-05-05T00:09:30.558Z,73.5727
2023-05-05T00:10:32.456Z,73.8176
2023-05-05T00:11:34.661Z,76.2162
2023-05-05T00:12:35.751Z,75.0930
2023-05-05T00:13:36.518Z,75.6693
2023-05-05T00:14:37.370Z,75.6696
2023-05-05T00:15:38.955Z,77.2201
2023-05-05T00:16:39.494Z,76.3272
2023-05-05T00:17:41.028Z,75.3784
2023-05-05T00:18:42.236Z,75.6248
2023-05-05T00:19:43.662Z,74.8738
2023-05-05T00:20:44.841Z,76.0829
2023-05-05T00:21:46.539Z,75.3144
2023-05-05T00:22:48.492Z,74.7791
2023-05-05T00:23:51.822Z,75.4291
2023-05-05T00:24:53.907Z,75.1864
2023-05-05T00:25:55.610Z,74.2551
2023-05-05T00:26:57.724Z,74.4619
2023-05-05T00:27:57.712Z,74.3883
2023-05-05T00:29:00.702Z,74.1829
2023-05-05T00:30:32.879Z,76.2274
2023-05-05T00:31:34.324Z,75.6175
2023-05-05T00:32:38.028Z,74.6504
2023-05-05T00:33:40.338Z,75.1204
2023-05-05T00:34:43.008Z,74.7992
2023-05-05T00:35:43.221Z,74.9932
2023-05-05T00:36:43.505Z,74.9629
2023-05-05T00:38:12.707Z,75.0053
2023-05-05T00:39:14.418Z,75.1780
2023-05-05T00:40:16.866Z,74.7635
2023-05-05T00:41:20.183Z,75.6913
2023-05-05T00:42:22.603Z,74.8780
2023-05-05T00:43:23.833Z,74.4961
2023-05-05T00:44:26.570Z,74.4875
2023-05-05T00:45:29.703Z,74.6722
2023-05-05T00:46:30.976Z,74.8179
2023-05-05T00:47:33.359Z,74.6241
2023-05-05T00:48:33.424Z,75.1387
2023-05-05T00:49:35.686Z,74.7386
2023-05-05T00:50:42.261Z,75.4467
2023-05-05T00:52:08.956Z,74.8969
2023-05-05T00:53:11.206Z,75.9152
2023-05-05T00:54:12.574Z,75.1031
2023-05-05T00:55:13.808Z,75.1158
2023-05-05T00:56:17.978Z,74.6190
2023-05-05T00:57:19.610Z,75.1156
2023-05-05T00:58:19.678Z,76.7348
2023-05-05T00:59:20.481Z,75.9072
2023-05-05T01:00:22.161Z,75.5922
2023-05-05T01:01:24.866Z,75.8376
2023-05-05T01:02:28.281Z,75.9423
2023-05-05T01:03:29.210Z,76.9044
2023-05-05T01:04:30.291Z,77.2398
2023-05-05T01:05:31.149Z,76.9599
2023-05-05T01:06:34.771Z,76.3374
2023-05-05T01:07:35.106Z,76.3822
2023-05-05T01:08:35.280Z,76.2000
2023-05-05T01:09:38.377Z,76.1933
2023-05-05T01:10:42.447Z,75.2431
2023-05-05T01:11:43.411Z,75.7700
2023-05-05T01:13:11.537Z,74.0694
2023-05-05T01:14:13.185Z,73.6153
2023-05-05T01:15:15.855Z,74.0502
2023-05-05T01:16:18.524Z,74.1455
2023-05-05T01:17:18.740Z,74.6194
2023-05-05T01:18:20.988Z,75.0224
2023-05-05T01:19:25.985Z,75.7783
2023-05-05T01:20:26.626Z,76.2243
2023-05-05T01:21:56.743Z,77.3444
2023-05-05T01:23:00.476Z,77.0855
2023-05-05T01:24:00.629Z,77.5304
2023-05-05T01:25:06.807Z,78.1196
2023-05-05T01:26:34.280Z,78.4986
2023-05-05T01:27:35.092Z,78.9897
2023-05-05T01:29:03.686Z,78.5520
2023-05-05T01:30:04.315Z,78.3742
2023-05-05T01:31:36.576Z,78.8688
2023-05-05T01:32:39.915Z,79.1139
2023-05-05T01:33:40.800Z,79.3203
2023-05-05T01:34:44.628Z,79.6356
2023-05-05T01:35:45.650Z,80.5209
2023-05-05T01:36:48.222Z,80.0239
2023-05-05T01:37:49.635Z,79.7415
2023-05-05T01:38:51.531Z,79.5941
2023-05-05T01:39:51.709Z,79.3968
2023-05-05T01:40:54.396Z,79.3559
2023-05-05T01:41:57.211Z,79.1820
2023-05-05T01:43:02.812Z,78.8346
2023-05-05T01:44:02.893Z,79.1758
2023-05-05T01:45:08.185Z,79.4337
2023-05-05T01:46:10.291Z,78.7850
2023-05-05T01:47:11.695Z,78.7403
2023-05-05T01:48:15.481Z,78.9989
2023-05-05T01:49:19.173Z,78.9204
2023-05-05T01:50:20.913Z,79.4495
2023-05-05T01:51:22.537Z,79.2173
2023-05-05T01:52:25.795Z,78.7458
2023-05-05T01:53:27.833Z,78.1810
2023-05-05T01:54:27.796Z,79.1790
2023-05-05T01:55:32.291Z,78.4937
2023-05-05T01:56:35.977Z,78.3058
2023-05-05T01:57:38.093Z,78.0921
2023-05-05T01:58:41.405Z,78.9377
2023-05-05T01:59:43.528Z,79.0645
2023-05-05T02:00:43.714Z,78.7554
2023-05-05T02:02:47.471Z,79.2124
2023-05-05T02:03:49.512Z,78.8542
2023-05-05T02:04:49.386Z,77.3030
2023-05-05T02:05:49.773Z,77.0211
2023-05-05T02:06:53.535Z,78.8603
2023-05-05T02:07:55.752Z,78.7102
2023-05-05T02:08:57.997Z,77.5511
2023-05-05T02:10:01.740Z,77.1772
2023-05-05T02:11:04.308Z,76.8359
2023-05-05T02:12:32.345Z,75.0605
2023-05-05T02:14:04.807Z,74.8374
2023-05-05T02:15:09.824Z,74.1731
2023-05-05T02:16:13.206Z,73.6679
2023-05-05T02:18:42.698Z,72.1299
2023-05-05T02:19:46.521Z,72.5477
2023-05-05T02:20:48.844Z,72.7977
2023-05-05T02:21:49.435Z,72.5974
2023-05-05T02:22:49.881Z,73.2542
2023-05-05T02:23:53.035Z,73.8977
2023-05-05T02:24:55.260Z,73.8720
2023-05-05T02:26:25.273Z,74.7049
2023-05-05T02:27:29.809Z,73.1196
2023-05-05T02:28:33.515Z,75.3418
2023-05-05T02:29:38.084Z,75.4923
2023-05-05T02:30:43.758Z,75.3835
2023-05-05T02:31:44.021Z,75.3865
2023-05-05T02:32:44.884Z,75.9357
2023-05-05T02:33:48.454Z,76.9193
2023-05-05T02:34:51.577Z,77.0802
2023-05-05T02:36:50.871Z,77.9327
2023-05-05T02:37:51.234Z,78.0972
2023-05-05T02:38:53.136Z,78.3904
2023-05-05T02:39:54.145Z,77.9772
2023-05-05T02:40:55.100Z,78.0228
2023-05-05T02:46:02.383Z,78.8362
2023-05-05T02:49:06.991Z,79.8393
2023-05-05T02:50:09.265Z,79.6884
2023-05-05T02:51:13.157Z,80.2816
2023-05-05T02:52:15.494Z,79.8963
2023-05-05T03:02:08.036Z,81.2587
2023-05-05T03:03:09.268Z,81.1084
2023-05-05T03:04:13.223Z,80.9563
2023-05-05T03:05:16.972Z,80.5565
2023-05-05T03:06:20.535Z,79.7449
2023-05-05T03:07:22.875Z,80.2567
2023-05-05T03:08:24.743Z,80.3196
2023-05-05T03:09:25.786Z,79.9629
2023-05-05T03:10:28.631Z,80.3352
2023-05-05T03:11:29.460Z,80.3726
2023-05-05T03:12:30.607Z,80.6054
2023-05-05T03:13:34.954Z,80.9035
2023-05-05T03:14:37.352Z,80.9810
2023-05-05T03:15:39.100Z,81.0092
2023-05-05T03:16:40.275Z,80.4565
2023-05-05T03:17:42.467Z,80.1759
2023-05-05T03:18:47.356Z,80.5143
2023-05-05T03:19:50.639Z,81.2260
2023-05-05T03:20:54.889Z,80.5928
2023-05-05T03:21:57.139Z,81.0196
2023-05-05T03:23:02.973Z,81.5213
2023-05-05T03:24:31.334Z,80.0970
2023-05-05T03:25:32.571Z,80.3875
2023-05-05T03:26:36.298Z,80.0157
2023-05-05T03:27:36.650Z,79.9565
2023-05-05T03:30:41.381Z,78.4925
2023-05-05T03:31:44.812Z,78.4593
2023-05-05T03:32:47.052Z,77.6232
2023-05-05T03:33:47.760Z,77.0150
2023-05-05T03:46:47.909Z,75.2711
2023-05-05T03:47:47.543Z,75.2107
2023-05-05T03:52:52.130Z,74.3955
2023-05-05T03:53:52.756Z,74.7851
2023-05-05T03:55:19.727Z,73.9638
2023-05-05T03:56:22.260Z,73.4324
2023-05-05T03:57:26.527Z,76.7559
2023-05-05T03:58:32.158Z,76.5983
2023-05-05T03:59:32.610Z,75.8715
2023-05-05T04:30:21.844Z,80.2045
2023-05-05T04:31:26.880Z,79.8912
2023-05-05T04:40:49.673Z,79.8632
2023-05-05T04:41:57.324Z,80.9975
2023-05-05T04:43:00.753Z,79.8895
2023-05-05T04:44:11.613Z,79.2613
2023-05-05T04:52:48.064Z,81.4990
2023-05-05T04:53:49.929Z,81.7226
2023-05-05T04:54:52.871Z,81.5722
2023-05-05T04:55:57.011Z,80.3751
2023-05-05T05:01:58.542Z,80.6868
2023-05-05T05:03:00.481Z,79.9396
2023-05-05T05:08:26.722Z,76.3951
2023-05-05T05:13:29.284Z,79.7549
2023-05-05T05:14:34.155Z,80.1883
2023-05-05T05:15:36.907Z,81.5312
2023-05-05T05:16:38.524Z,81.4599
2023-05-05T05:17:40.625Z,81.4880
2023-05-05T05:18:40.935Z,81.8488
2023-05-05T05:19:41.082Z,81.4271
2023-05-05T05:43:12.748Z,83.5054
2023-05-05T05:44:14.956Z,83.3432
2023-05-05T05:45:17.349Z,83.6082
2023-05-05T05:46:17.816Z,83.0837
2023-05-05T05:59:19.138Z,80.5795
2023-05-05T06:00:19.863Z,80.7637
2023-05-05T06:01:21.074Z,80.1123
2023-05-05T06:02:26.189Z,79.9861
2023-05-05T06:03:29.757Z,80.2070
2023-05-05T06:08:41.457Z,78.7877
2023-05-05T06:09:43.438Z,78.7105
2023-05-05T06:10:43.963Z,79.4689
2023-05-05T06:11:44.774Z,79.3250
2023-05-05T06:13:14.490Z,80.8370
2023-05-05T06:14:20.436Z,79.7282
2023-05-05T06:15:22.701Z,79.4181
2023-05-05T06:30:50.902Z,74.9155
2023-05-05T06:32:24.378Z,74.6838
2023-05-05T06:33:52.137Z,75.2886
2023-05-05T06:34:59.183Z,74.4879
2023-05-05T06:35:57.048Z,71.9446
2023-05-05T06:37:56.361Z,72.2978
2023-05-05T06:45:10.036Z,71.4404
2023-05-05T06:46:37.672Z,70.5188
2023-05-05T06:48:08.619Z,71.5308
2023-05-05T06:49:10.838Z,69.8236
2023-05-05T06:50:38.853Z,69.7294
2023-05-05T06:51:43.149Z,68.8952
2023-05-05T06:53:10.718Z,68.9752
2023-05-05T06:54:43.998Z,68.4953
2023-05-05T06:56:12.401Z,68.5256
2023-05-05T06:57:41.182Z,68.1800
2023-05-05T06:59:09.993Z,67.8636
2023-05-05T07:00:40.947Z,67.4818
2023-05-05T07:02:09.589Z,67.8915
2023-05-05T07:03:41.195Z,67.5466
2023-05-05T07:04:44.429Z,67.9251
2023-05-05T07:06:14.609Z,66.6255
2023-05-05T07:07:43.925Z,66.7447
2023-05-05T07:09:17.662Z,69.1949
2023-05-05T07:10:16.416Z,68.0124
2023-05-05T07:11:49.372Z,67.1082
2023-05-05T07:13:49.780Z,64.5237
2023-05-05T07:15:29.270Z,64.4516
2023-05-05T07:16:50.371Z,64.8613
2023-05-05T07:18:21.631Z,63.8524
2023-05-05T07:19:51.935Z,62.6558
2023-05-05T07:21:20.842Z,62.2482
2023-05-05T07:22:22.433Z,62.2956
2023-05-05T07:23:52.419Z,63.7854
2023-05-05T07:25:21.220Z,63.0322
2023-05-05T07:26:52.618Z,62.4074
2023-05-05T07:28:23.346Z,62.2044
2023-05-05T07:29:53.983Z,61.9522
2023-05-05T07:30:54.929Z,62.4657
2023-05-05T07:32:25.283Z,63.2588
2023-05-05T07:33:57.182Z,63.2335
2023-05-05T07:35:28.979Z,64.3449
2023-05-05T07:36:58.107Z,62.7217
2023-05-05T07:38:28.132Z,63.1483
2023-05-05T07:39:58.565Z,64.0568
2023-05-05T07:41:27.589Z,63.9497
2023-05-05T07:42:58.511Z,64.5659
2023-05-05T07:45:29.554Z,64.9858
2023-05-05T07:47:02.016Z,64.6488
2023-05-05T07:48:32.507Z,63.9966
2023-05-05T07:50:03.654Z,63.9909
2023-05-05T07:51:35.292Z,63.1763
2023-05-05T07:53:14.912Z,64.2960
2023-05-05T07:54:06.198Z,64.7687
2023-05-05T07:55:37.903Z,64.1868
2023-05-05T07:57:08.011Z,64.2439
2023-05-05T07:58:39.141Z,64.3651
2023-05-05T08:00:11.864Z,63.8942
2023-05-05T08:01:42.683Z,63.5994
2023-05-05T08:03:13.200Z,64.2865
2023-05-05T08:04:45.386Z,63.4699
2023-05-05T08:06:15.664Z,63.2862
2023-05-05T08:07:47.579Z,65.2191
2023-05-05T08:09:16.562Z,65.1677
2023-05-05T08:10:47.963Z,64.3217
2023-05-05T08:12:16.754Z,64.7196
2023-05-05T08:13:46.453Z,64.0471
2023-05-05T08:15:17.711Z,64.1303
2023-05-05T08:16:49.513Z,64.0298
2023-05-05T08:18:20.220Z,63.8555
2023-05-05T08:19:49.186Z,63.1511
2023-05-05T08:21:52.000Z,63.9598
2023-05-05T08:24:56.226Z,63.1564
2023-05-05T08:26:58.052Z,65.2416
2023-05-05T08:28:29.440Z,63.2432
2023-05-05T08:30:01.502Z,62.7224
2023-05-05T08:31:31.252Z,62.2995
2023-05-05T08:33:03.820Z,61.9937
2023-05-05T08:34:33.654Z,62.0883
2023-05-05T08:35:35.392Z,61.9344
2023-05-05T08:37:05.850Z,62.4214
2023-05-05T08:38:36.274Z,61.3168
2023-05-05T08:40:09.145Z,61.7803
2023-05-05T08:41:39.450Z,61.1496
2023-05-05T08:42:40.015Z,61.2211
2023-05-05T08:43:43.184Z,62.7241
2023-05-05T08:45:14.550Z,61.5199
2023-05-05T08:46:45.164Z,60.3898
2023-05-05T08:48:14.084Z,60.9890
2023-05-05T08:49:43.870Z,61.4973
2023-05-05T08:51:16.305Z,60.1218
2023-05-05T08:52:51.215Z,60.5114
2023-05-05T08:54:17.991Z,60.5808
2023-05-05T08:55:48.635Z,61.2610
2023-05-05T08:57:19.631Z,61.0437
2023-05-05T08:58:50.912Z,60.4782
2023-05-05T09:00:20.182Z,59.8060
2023-05-05T09:01:50.936Z,59.9829
2023-05-05T09:03:22.353Z,61.3011
2023-05-05T09:04:52.128Z,60.6326
2023-05-05T09:06:21.914Z,61.6290
2023-05-05T09:07:52.492Z,62.3117
2023-05-05T09:09:22.291Z,60.5498
2023-05-05T09:10:52.040Z,61.5647
2023-05-05T09:12:22.369Z,61.5048
2023-05-05T09:13:53.659Z,61.2957
2023-05-05T09:15:25.011Z,60.3487
2023-05-05T09:16:56.342Z,61.0341
2023-05-05T09:18:26.505Z,59.9450
2023-05-05T09:19:56.301Z,59.3389
2023-05-05T09:21:27.019Z,59.8564
2023-05-05T09:22:58.479Z,59.3154
2023-05-05T09:24:30.498Z,60.3076
2023-05-05T09:26:00.985Z,59.6478
2023-05-05T09:27:30.965Z,59.0762
2023-05-05T09:29:01.186Z,60.4874
2023-05-05T09:30:32.528Z,58.8466
2023-05-05T09:32:03.322Z,58.7825
2023-05-05T09:33:34.915Z,60.2996
2023-05-05T09:35:05.364Z,59.9109
2023-05-05T09:36:34.567Z,60.2679
2023-05-05T09:38:06.124Z,59.3064
2023-05-05T09:39:36.932Z,60.0398
2023-05-05T09:41:08.501Z,60.8146
2023-05-05T09:42:39.118Z,59.8759
2023-05-05T09:44:09.923Z,58.8773
2023-05-05T09:45:41.592Z,59.6856
2023-05-05T09:47:29.111Z,59.3734
2023-05-05T09:48:43.660Z,57.9485
2023-05-05T09:50:14.035Z,59.8091
2023-05-05T09:51:44.044Z,60.5859
2023-05-05T09:53:13.336Z,60.2538
2023-05-05T09:54:43.792Z,61.2514
2023-05-05T09:56:13.050Z,60.0292
2023-05-05T09:57:43.416Z,59.0416
2023-05-05T09:59:13.137Z,58.8856
2023-05-05T10:00:43.471Z,58.6841
2023-05-05T10:02:13.829Z,58.3498
2023-05-05T10:03:44.210Z,58.3260
2023-05-05T10:05:14.757Z,58.3760
2023-05-05T10:06:43.753Z,59.3518
2023-05-05T10:08:14.078Z,59.2993
2023-05-05T10:09:44.385Z,58.7564
2023-05-05T10:11:13.712Z,57.7103
2023-05-05T10:12:44.016Z,58.3409
2023-05-05T10:14:14.756Z,60.2505
2023-05-05T10:15:46.099Z,57.7607
2023-05-05T10:17:16.495Z,57.3080
2023-05-05T10:18:45.775Z,56.9462
2023-05-05T10:20:15.020Z,57.0528
2023-05-05T10:21:44.291Z,58.7490
2023-05-05T10:23:14.104Z,56.7399
2023-05-05T10:24:45.643Z,56.4689
2023-05-05T10:26:15.438Z,56.0195
2023-05-05T10:27:45.100Z,56.9869
2023-05-05T10:29:15.856Z,56.4456
2023-05-05T10:30:45.223Z,55.8264
2023-05-05T10:32:40.820Z,55.0912
2023-05-05T10:33:45.367Z,55.9954
2023-05-05T10:35:14.933Z,56.2905
2023-05-05T10:36:45.223Z,56.2680
2023-05-05T10:38:15.953Z,55.8082
2023-05-05T10:39:45.289Z,56.0238
2023-05-05T10:41:14.577Z,56.3583
2023-05-05T10:42:43.965Z,57.3586
2023-05-05T10:44:13.173Z,56.8374
2023-05-05T10:45:44.071Z,56.3847
2023-05-05T10:47:14.483Z,56.2083
2023-05-05T10:48:45.980Z,57.1061
2023-05-05T10:50:14.765Z,57.0803
2023-05-05T10:51:44.148Z,57.4973
2023-05-05T10:53:15.397Z,57.0720
2023-05-05T10:54:46.125Z,56.1764
2023-05-05T10:56:16.953Z,56.2367
2023-05-05T10:57:48.109Z,55.8314
2023-05-05T10:59:18.416Z,55.6107
2023-05-05T11:00:47.801Z,56.1485
2023-05-05T11:02:17.106Z,54.5838
2023-05-05T11:03:47.657Z,55.3070
2023-05-05T11:05:19.044Z,54.7143
2023-05-05T11:06:49.383Z,54.1997
2023-05-05T11:08:18.725Z,54.6238
2023-05-05T11:09:48.525Z,54.6329
2023-05-05T11:11:18.799Z,54.4183
2023-05-05T11:12:48.584Z,54.0088
2023-05-05T11:14:17.874Z,54.3988
2023-05-05T11:15:49.031Z,54.3195
2023-05-05T11:17:18.404Z,55.3947
2023-05-05T11:18:47.840Z,53.5945
2023-05-05T11:20:17.258Z,53.9187
2023-05-05T11:21:46.949Z,52.9627
2023-05-05T11:23:17.059Z,49.8979
2023-05-05T11:24:45.439Z,48.8722
2023-05-05T11:26:14.712Z,46.2693
2023-05-05T11:27:43.905Z,48.4124
2023-05-05T11:29:14.092Z,46.8949
2023-05-05T11:30:44.422Z,46.7250
2023-05-05T11:32:13.923Z,47.2087
2023-05-05T11:33:15.818Z,46.4377
2023-05-05T11:34:45.948Z,47.5691
2023-05-05T11:36:16.047Z,47.9190
2023-05-05T11:37:45.112Z,48.2217
2023-05-05T11:39:14.229Z,45.7885
2023-05-05T11:40:43.265Z,43.8253
2023-05-05T11:42:13.293Z,44.7843
2023-05-05T11:43:43.435Z,47.2414
2023-05-05T11:44:44.829Z,47.9097
2023-05-05T11:46:16.480Z,46.1036
2023-05-05T11:47:45.052Z,46.0734
2023-05-05T11:49:14.033Z,45.5084
2023-05-05T11:50:43.562Z,44.7562
2023-05-05T11:52:12.655Z,45.1915
2023-05-05T11:53:41.661Z,45.1010
2023-05-05T11:55:10.719Z,44.1829
2023-05-05T11:56:41.766Z,44.9274
2023-05-05T11:58:10.811Z,45.0993
2023-05-05T11:59:40.846Z,45.4125
2023-05-05T12:01:10.947Z,49.0439
2023-05-05T12:02:40.597Z,49.4347
2023-05-05T12:04:10.582Z,49.9889
2023-05-05T12:05:39.204Z,49.3851
2023-05-05T12:07:09.322Z,48.0261
2023-05-05T12:08:39.450Z,46.7653
2023-05-05T12:10:09.310Z,47.3574
2023-05-05T12:11:37.633Z,47.1412
2023-05-05T12:13:06.813Z,44.9811
2023-05-05T12:14:36.825Z,45.4498
2023-05-05T12:16:06.995Z,47.5713
2023-05-05T12:17:36.932Z,46.3517
2023-05-05T12:19:05.969Z,46.3327
2023-05-05T12:20:35.894Z,47.9678
2023-05-05T12:22:04.911Z,47.1459
2023-05-05T12:23:33.849Z,46.3925
2023-05-05T12:25:03.874Z,46.5354
2023-05-05T12:26:32.840Z,44.1772
2023-05-05T12:28:01.702Z,45.2221
2023-05-05T12:29:31.713Z,45.9747
2023-05-05T12:31:01.916Z,46.4565
2023-05-05T12:32:31.805Z,45.6085
2023-05-05T12:34:01.881Z,43.7756
2023-05-05T12:35:31.991Z,43.1726
2023-05-05T12:37:01.850Z,43.0192
2023-05-05T12:38:31.842Z,44.2891
2023-05-05T12:40:00.726Z,43.7508
2023-05-05T12:41:29.681Z,45.0117
2023-05-05T12:42:59.606Z,42.9234
2023-05-05T12:44:29.067Z,46.1790
2023-05-05T12:45:59.189Z,46.2787
2023-05-05T12:47:29.549Z,45.0022
2023-05-05T12:48:59.989Z,44.7176
2023-05-05T12:50:28.880Z,43.5008
2023-05-05T12:51:57.823Z,43.0265
2023-05-05T12:53:27.731Z,44.4190
2023-05-05T12:54:57.596Z,44.4845
2023-05-05T12:56:26.487Z,43.0925
2023-05-05T12:57:56.409Z,44.6486
2023-05-05T12:59:26.310Z,40.5101
2023-05-05T13:00:56.747Z,39.1486
2023-05-05T13:02:25.565Z,41.0092
2023-05-05T13:03:54.376Z,41.9835
2023-05-05T13:05:23.255Z,40.8935
2023-05-05T13:06:54.686Z,37.7731
2023-05-05T13:08:20.949Z,38.4463
2023-05-05T13:09:50.790Z,39.7115
2023-05-05T13:11:19.614Z,36.6715
2023-05-05T13:12:48.429Z,36.6921
2023-05-05T13:14:17.267Z,36.7069
2023-05-05T13:15:47.106Z,38.6000
2023-05-05T13:17:15.870Z,42.5694
2023-05-05T13:18:45.721Z,43.1373
2023-05-05T13:20:15.638Z,44.4719
2023-05-05T13:21:44.538Z,43.9134
2023-05-05T13:23:13.361Z,45.2700
2023-05-05T13:24:52.165Z,42.8720
2023-05-05T13:26:12.182Z,44.0247
2023-05-05T13:27:41.153Z,41.6474
2023-05-05T13:29:10.099Z,42.9143
2023-05-05T13:30:38.979Z,40.0042
2023-05-05T13:32:07.842Z,41.8905
2023-05-05T13:33:36.783Z,41.4065
2023-05-05T13:35:05.715Z,39.5103
2023-05-05T13:36:35.494Z,36.3398
2023-05-05T13:38:05.445Z,37.4834
2023-05-05T13:39:35.325Z,40.0012
2023-05-05T13:41:05.379Z,41.6579
2023-05-05T13:42:34.170Z,41.5925
2023-05-05T13:44:04.171Z,43.9000
2023-05-05T13:45:34.159Z,45.0776
2023-05-05T13:47:04.157Z,44.6656
2023-05-05T13:48:33.093Z,44.8599
2023-05-05T13:50:02.224Z,47.0544
2023-05-05T13:51:32.116Z,45.6030
2023-05-05T13:53:01.133Z,45.8464
2023-05-05T13:54:30.111Z,45.8506
2023-05-05T13:55:59.218Z,46.7697
2023-05-05T13:57:30.684Z,45.4789
2023-05-05T13:59:00.323Z,45.4452
2023-05-05T14:00:29.448Z,45.0448
2023-05-05T14:01:58.387Z,44.8704
2023-05-05T14:03:27.417Z,44.6893
2023-05-05T14:04:57.241Z,46.0697
2023-05-05T14:06:26.696Z,45.5412
2023-05-05T14:07:56.679Z,47.2638
2023-05-05T14:09:25.812Z,47.1990
2023-05-05T14:10:55.969Z,45.9287
2023-05-05T14:12:26.051Z,46.5121
2023-05-05T14:13:56.241Z,45.5392
2023-05-05T14:15:26.043Z,47.0567
2023-05-05T14:16:56.115Z,48.8659
2023-05-05T14:18:25.746Z,45.5798
2023-05-05T14:19:56.627Z,46.9190
2023-05-05T14:21:26.092Z,45.8375
2023-05-05T14:22:55.245Z,47.1777
2023-05-05T14:24:25.641Z,46.5809
2023-05-05T14:25:54.818Z,46.6212
2023-05-05T14:27:24.050Z,46.5975
2023-05-05T14:28:53.790Z,46.6737
2023-05-05T14:30:23.111Z,46.0228
2023-05-05T14:31:52.601Z,47.4463
2023-05-05T14:33:21.809Z,47.8173
2023-05-05T14:34:51.105Z,48.5428
2023-05-05T14:36:21.325Z,49.5036
2023-05-05T14:37:50.598Z,50.6562
2023-05-05T14:39:19.719Z,49.0638
2023-05-05T14:40:48.928Z,47.1330
2023-05-05T14:42:18.168Z,47.1484
2023-05-05T14:43:47.407Z,50.8815
2023-05-05T14:45:17.650Z,47.5051
2023-05-05T14:46:51.360Z,47.4434
2023-05-05T14:48:17.150Z,47.4316
2023-05-05T14:49:47.464Z,50.4061
2023-05-05T14:51:17.095Z,50.8019
2023-05-05T14:52:46.371Z,49.3032
2023-05-05T14:54:28.470Z,51.4712
2023-05-05T14:55:47.220Z,48.9809
2023-05-05T14:57:18.307Z,50.1921
2023-05-05T14:58:49.758Z,50.0894
2023-05-05T15:00:18.497Z,50.1679
2023-05-05T15:01:47.931Z,49.7512
2023-05-05T15:03:19.252Z,49.7503
2023-05-05T15:04:50.568Z,50.6887
2023-05-05T15:06:19.976Z,49.8881
2023-05-05T15:07:51.571Z,50.4278
2023-05-05T15:09:21.277Z,52.0194
2023-05-05T15:10:52.393Z,51.6782
2023-05-05T15:12:22.241Z,50.5986
2023-05-05T15:13:53.842Z,52.1792
2023-05-05T15:15:23.345Z,50.9328
2023-05-05T15:16:53.370Z,50.6734
2023-05-05T15:18:22.203Z,53.3657
2023-05-05T15:19:53.537Z,51.2769
2023-05-05T15:21:23.519Z,52.6881
2023-05-05T15:22:54.545Z,54.6813
2023-05-05T15:24:25.367Z,53.3132
2023-05-05T15:25:55.188Z,53.6401
2023-05-05T15:27:25.511Z,56.7441
2023-05-05T15:28:54.893Z,61.8820
2023-05-05T15:30:25.764Z,64.8892
2023-05-05T15:31:57.162Z,66.0415
2023-05-05T15:33:29.249Z,66.5708
2023-05-05T15:35:00.766Z,67.5202
2023-05-05T15:36:29.650Z,67.6232
2023-05-05T15:37:59.632Z,68.0423
2023-05-05T15:39:29.930Z,69.6759
2023-05-05T15:40:32.164Z,71.0889
2023-05-05T15:41:34.760Z,71.9065
2023-05-05T15:42:35.937Z,72.8137
2023-05-05T15:44:08.183Z,72.8375
2023-05-05T15:49:18.412Z,72.1945
2023-05-05T15:50:46.166Z,71.5213
2023-05-05T15:52:15.052Z,72.0932
2023-05-05T16:10:56.123Z,67.1023
2023-05-05T16:11:59.172Z,66.0938
2023-05-05T16:13:30.013Z,66.8483
2023-05-05T16:15:00.165Z,66.9907
2023-05-05T16:16:32.515Z,65.2611
2023-05-05T16:18:01.827Z,65.9236
2023-05-05T16:19:32.779Z,65.7128
2023-05-05T16:21:03.336Z,66.2701
2023-05-05T16:22:05.981Z,66.8186
2023-05-05T16:23:35.967Z,67.1109
2023-05-05T16:25:05.152Z,67.2859
2023-05-05T16:26:08.691Z,68.1214
2023-05-05T16:27:37.347Z,68.2676
2023-05-05T16:28:39.772Z,68.7160
2023-05-05T16:30:09.807Z,68.6799
2023-05-05T16:31:38.420Z,69.0742
2023-05-05T16:33:07.383Z,69.0198
2023-05-05T16:34:39.290Z,68.7765
2023-05-05T16:36:08.450Z,68.4834
2023-05-05T16:37:40.594Z,69.1013
2023-05-05T16:39:11.320Z,69.5316
2023-05-05T16:40:40.051Z,69.7201
2023-05-05T16:41:41.720Z,69.3582
2023-05-05T16:43:14.441Z,70.7287
2023-05-05T16:44:46.950Z,71.2969
2023-05-05T16:46:15.852Z,70.2706
2023-05-05T16:47:46.382Z,70.1165
2023-05-05T16:49:16.105Z,71.3749
2023-05-05T16:50:18.952Z,70.8351
2023-05-05T16:51:48.561Z,71.9407
2023-05-05T16:52:49.575Z,71.5914
2023-05-05T16:53:51.913Z,71.4093
2023-05-05T16:55:23.502Z,72.7215
2023-05-05T16:56:57.227Z,72.3737
2023-05-05T16:58:24.432Z,71.7670
2023-05-05T16:59:54.499Z,72.3635
2023-05-05T17:01:25.974Z,72.5193
2023-05-05T17:02:57.325Z,72.6805
2023-05-05T17:04:28.016Z,72.8205
2023-05-05T17:05:58.941Z,73.5277
2023-05-05T17:07:02.490Z,73.2162
2023-05-05T17:08:34.004Z,73.3569
2023-05-05T17:09:35.908Z,73.2561
2023-05-05T17:11:05.600Z,73.5434
2023-05-05T17:12:08.702Z,72.9962
2023-05-05T17:13:09.054Z,72.9887
2023-05-05T17:14:13.407Z,73.4991
2023-05-05T17:27:38.522Z,72.8248
2023-05-05T17:28:38.529Z,72.4295
2023-05-05T17:31:10.638Z,72.7892
2023-05-05T17:41:30.984Z,71.6617
2023-05-05T17:45:08.537Z,71.8662
2023-05-05T17:52:55.631Z,72.6531
2023-05-05T17:57:32.888Z,74.5089
